createdAt,value
2018-12-27T00:02:06.424Z,99738.14
2018-12-27T00:04:34.581Z,99738.50
2018-12-27T00:07:01.593Z,99739.02
2018-12-27T00:09:28.671Z,99735.09
2018-12-27T00:11:55.629Z,99736.00
2018-12-27T00:14:22.545Z,99737.69
2018-12-27T00:16:50.655Z,99741.63
2018-12-27T00:19:17.463Z,99737.20
2018-12-27T00:21:44.495Z,99730.70
2018-12-27T00:24:11.463Z,99740.29
2018-12-27T00:26:40.053Z,99733.83
2018-12-27T00:29:07.138Z,99732.11
2018-12-27T00:31:34.043Z,99732.53
2018-12-27T00:34:01.021Z,99723.02
2018-12-27T00:36:27.754Z,99725.61
2018-12-27T00:38:54.557Z,99726.91
2018-12-27T00:41:21.450Z,99717.39
2018-12-27T00:43:50.150Z,99716.52
2018-12-27T00:46:18.420Z,99716.52
2018-12-27T00:48:45.445Z,99712.63
2018-12-27T00:51:14.295Z,99709.19
2018-12-27T00:53:41.083Z,99704.89
2018-12-27T00:56:07.988Z,99706.68
2018-12-27T00:58:34.937Z,99699.38
2018-12-27T01:01:02.864Z,99695.51
2018-12-27T01:03:29.777Z,99695.97
2018-12-27T01:05:56.518Z,99697.33
2018-12-27T01:08:23.357Z,99693.98
2018-12-27T01:10:50.319Z,99694.44
2018-12-27T01:13:17.390Z,99692.74
2018-12-27T01:15:44.325Z,99688.00
2018-12-27T01:18:11.355Z,99692.84
2018-12-27T01:24:18.856Z,99683.80
2018-12-27T01:26:45.651Z,99686.83
2018-12-27T01:29:12.475Z,99676.00
2018-12-27T01:31:39.465Z,99678.22
2018-12-27T01:34:06.363Z,99683.02
2018-12-27T01:36:33.414Z,99680.91
2018-12-27T01:39:01.566Z,99678.76
2018-12-27T01:41:28.318Z,99675.31
2018-12-27T01:43:55.321Z,99679.66
2018-12-27T01:46:22.303Z,99676.64
2018-12-27T01:48:49.141Z,99675.83
2018-12-27T01:51:15.908Z,99667.58
2018-12-27T01:53:42.760Z,99664.50
2018-12-27T01:56:10.132Z,99657.97
2018-12-27T01:58:37.023Z,99658.81
2018-12-27T02:01:04.047Z,99662.77
2018-12-27T02:03:32.895Z,99652.77
2018-12-27T02:05:59.900Z,99651.08
2018-12-27T02:08:26.835Z,99654.12
2018-12-27T02:10:53.607Z,99651.14
2018-12-27T02:13:20.395Z,99649.53
2018-12-27T02:15:47.425Z,99656.42
2018-12-27T02:18:16.175Z,99655.48
2018-12-27T02:20:42.907Z,99652.02
2018-12-27T02:23:09.900Z,99647.12
2018-12-27T02:25:49.125Z,99637.08
2018-12-27T02:28:15.936Z,99637.08
2018-12-27T02:30:42.962Z,99627.98
2018-12-27T02:33:09.682Z,99627.11
2018-12-27T02:35:36.603Z,99633.61
2018-12-27T02:38:03.350Z,99632.67
2018-12-27T02:40:30.148Z,99631.80
2018-12-27T02:42:56.920Z,99625.57
2018-12-27T02:45:23.625Z,99630.53
2018-12-27T02:47:50.416Z,99626.14
2018-12-27T02:50:17.219Z,99628.66
2018-12-27T02:52:44.161Z,99627.75
2018-12-27T02:55:11.116Z,99621.09
2018-12-27T02:57:38.040Z,99623.98
2018-12-27T03:00:04.920Z,99623.08
2018-12-27T03:02:31.950Z,99626.91
2018-12-27T03:04:58.893Z,99626.81
2018-12-27T03:07:25.709Z,99617.23
2018-12-27T03:09:52.888Z,99606.79
2018-12-27T03:12:19.805Z,99594.23
2018-12-27T03:14:46.754Z,99595.88
2018-12-27T03:17:13.596Z,99595.05
2018-12-27T03:19:40.462Z,99589.91
2018-12-27T03:22:07.277Z,99589.09
2018-12-27T03:24:34.251Z,99585.23
2018-12-27T03:27:01.265Z,99582.67
2018-12-27T03:29:27.963Z,99574.42
2018-12-27T03:31:54.881Z,99578.77
2018-12-27T03:34:23.639Z,99585.72
2018-12-27T03:36:50.512Z,99583.67
2018-12-27T03:39:17.421Z,99580.68
2018-12-27T03:41:44.352Z,99578.53
2018-12-27T03:44:11.083Z,99578.02
2018-12-27T03:46:37.927Z,99581.47
2018-12-27T03:49:04.677Z,99583.19
2018-12-27T03:51:31.430Z,99572.83
2018-12-27T03:53:58.882Z,99576.27
2018-12-27T03:56:25.724Z,99566.66
2018-12-27T03:58:52.553Z,99561.05
2018-12-27T04:01:19.341Z,99561.11
2018-12-27T04:03:46.192Z,99557.16
2018-12-27T04:06:13.221Z,99558.81
2018-12-27T04:08:40.118Z,99551.38
2018-12-27T04:11:06.854Z,99554.31
2018-12-27T04:13:33.683Z,99552.44
2018-12-27T04:16:01.058Z,99549.81
2018-12-27T04:18:28.422Z,99551.98
2018-12-27T04:20:56.770Z,99558.86
2018-12-27T04:23:23.944Z,99555.33
2018-12-27T04:25:51.268Z,99560.84
2018-12-27T04:28:18.190Z,99550.85
2018-12-27T04:30:45.214Z,99544.75
2018-12-27T04:33:13.703Z,99546.98
2018-12-27T04:35:40.804Z,99544.84
2018-12-27T04:38:07.769Z,99542.67
2018-12-27T04:40:34.663Z,99532.30
2018-12-27T04:43:01.609Z,99532.33
2018-12-27T04:45:28.637Z,99538.45
2018-12-27T04:47:55.673Z,99531.58
2018-12-27T04:50:22.539Z,99526.11
2018-12-27T04:52:49.362Z,99522.34
2018-12-27T04:55:16.314Z,99516.84
2018-12-27T04:57:43.341Z,99511.80
2018-12-27T05:00:10.182Z,99506.66
2018-12-27T05:02:37.366Z,99498.96
2018-12-27T05:05:04.309Z,99496.50
2018-12-27T05:07:31.132Z,99491.82
2018-12-27T05:09:58.158Z,99491.02
2018-12-27T05:12:25.200Z,99496.76
2018-12-27T05:14:52.111Z,99492.47
2018-12-27T05:17:19.180Z,99503.39
2018-12-27T05:19:48.757Z,99507.83
2018-12-27T05:22:15.755Z,99507.06
2018-12-27T05:24:42.677Z,99507.25
2018-12-27T05:27:09.866Z,99520.80
2018-12-27T05:29:36.770Z,99516.83
2018-12-27T05:32:04.754Z,99519.42
2018-12-27T05:34:31.593Z,99519.81
2018-12-27T05:37:00.886Z,99516.32
2018-12-27T05:39:27.923Z,99524.05
2018-12-27T05:41:54.788Z,99519.23
2018-12-27T05:44:21.721Z,99524.38
2018-12-27T05:46:48.858Z,99522.56
2018-12-27T05:49:15.840Z,99529.86
2018-12-27T05:51:42.743Z,99529.37
2018-12-27T05:54:09.867Z,99531.89
2018-12-27T05:56:38.735Z,99532.23
2018-12-27T05:59:05.766Z,99537.28
2018-12-27T06:01:34.644Z,99541.03
2018-12-27T06:04:01.681Z,99546.50
2018-12-27T06:06:28.677Z,99552.05
2018-12-27T06:08:55.598Z,99554.44
2018-12-27T06:11:22.573Z,99564.21
2018-12-27T06:13:49.466Z,99566.27
2018-12-27T06:16:16.368Z,99564.02
2018-12-27T06:18:43.412Z,99562.56
2018-12-27T06:21:10.497Z,99561.63
2018-12-27T06:23:37.305Z,99554.13
2018-12-27T06:26:04.144Z,99558.84
2018-12-27T06:28:31.125Z,99557.86
2018-12-27T06:30:58.092Z,99559.09
2018-12-27T06:33:25.084Z,99566.29
2018-12-27T06:35:52.042Z,99562.66
2018-12-27T06:38:18.925Z,99568.13
2018-12-27T06:40:45.910Z,99573.56
2018-12-27T06:43:12.928Z,99570.52
2018-12-27T06:45:39.780Z,99577.73
2018-12-27T06:48:06.767Z,99577.67
2018-12-27T06:50:33.710Z,99587.52
2018-12-27T06:53:02.587Z,99577.95
2018-12-27T06:55:29.585Z,99577.88
2018-12-27T06:57:56.749Z,99570.83
2018-12-27T07:00:24.998Z,99569.47
2018-12-27T07:02:52.019Z,99562.80
2018-12-27T07:05:19.009Z,99561.64
2018-12-27T07:07:46.169Z,99559.14
2018-12-27T07:10:13.284Z,99562.57
2018-12-27T07:12:40.323Z,99565.02
2018-12-27T07:15:07.398Z,99560.70
2018-12-27T07:17:34.389Z,99555.84
2018-12-27T07:20:01.517Z,99553.63
2018-12-27T07:22:28.517Z,99558.34
2018-12-27T07:24:55.560Z,99552.18
2018-12-27T07:27:22.497Z,99555.19
2018-12-27T07:29:49.641Z,99547.42
2018-12-27T07:32:22.518Z,99549.17
2018-12-27T07:34:56.283Z,99549.81
2018-12-27T07:37:18.475Z,99538.63
2018-12-27T07:39:45.492Z,99530.33
2018-12-27T07:42:12.535Z,99533.87
2018-12-27T07:44:39.636Z,99538.73
2018-12-27T07:47:07.209Z,99529.34
2018-12-27T07:49:34.310Z,99527.77
2018-12-27T07:52:01.279Z,99531.76
2018-12-27T07:54:28.405Z,99528.67
2018-12-27T07:56:57.490Z,99528.87
2018-12-27T07:59:24.435Z,99536.86
2018-12-27T08:01:51.425Z,99529.67
2018-12-27T08:04:18.517Z,99518.52
2018-12-27T08:06:45.555Z,99523.16
2018-12-27T08:09:12.456Z,99524.52
2018-12-27T08:11:39.534Z,99522.83
2018-12-27T08:14:06.649Z,99523.23
2018-12-27T08:16:33.533Z,99523.16
2018-12-27T08:19:00.925Z,99522.48
2018-12-27T08:21:29.850Z,99525.17
2018-12-27T08:23:56.976Z,99529.16
2018-12-27T08:26:23.939Z,99520.52
2018-12-27T08:28:52.164Z,99519.38
2018-12-27T08:31:19.308Z,99533.89
2018-12-27T08:33:46.377Z,99541.23
2018-12-27T08:36:13.400Z,99549.61
2018-12-27T08:38:40.467Z,99554.95
2018-12-27T08:41:07.368Z,99558.17
2018-12-27T08:43:34.445Z,99557.17
2018-12-27T08:46:01.796Z,99548.41
2018-12-27T08:48:30.072Z,99545.37
2018-12-27T08:50:57.175Z,99557.98
2018-12-27T08:53:24.259Z,99564.48
2018-12-27T08:55:51.412Z,99559.47
2018-12-27T08:58:18.591Z,99555.86
2018-12-27T09:00:45.715Z,99559.23
2018-12-27T09:03:12.771Z,99559.14
2018-12-27T09:05:39.739Z,99551.16
2018-12-27T09:08:06.592Z,99553.75
2018-12-27T09:10:33.557Z,99555.02
2018-12-27T09:13:00.471Z,99550.84
2018-12-27T09:15:27.400Z,99555.38
2018-12-27T09:17:54.339Z,99553.63
2018-12-27T09:20:21.277Z,99547.88
2018-12-27T09:22:48.851Z,99546.81
2018-12-27T09:25:16.021Z,99552.37
2018-12-27T09:27:44.807Z,99546.09
2018-12-27T09:30:11.911Z,99549.30
2018-12-27T09:32:38.990Z,99542.77
2018-12-27T09:35:06.074Z,99541.26
2018-12-27T09:37:33.553Z,99535.94
2018-12-27T09:40:00.961Z,99539.50
2018-12-27T09:42:27.957Z,99533.70
2018-12-27T09:44:55.007Z,99542.86
2018-12-27T09:47:21.986Z,99535.83
2018-12-27T09:49:49.058Z,99532.91
2018-12-27T09:52:16.105Z,99543.44
2018-12-27T09:54:43.060Z,99532.09
2018-12-27T09:57:11.742Z,99524.77
2018-12-27T09:59:38.769Z,99531.59
2018-12-27T10:02:05.787Z,99538.20
2018-12-27T10:04:32.848Z,99534.72
2018-12-27T10:06:59.929Z,99532.98
2018-12-27T10:09:27.027Z,99529.41
2018-12-27T10:11:54.092Z,99532.81
2018-12-27T10:14:21.340Z,99526.27
2018-12-27T10:16:59.999Z,99525.74
2018-12-27T10:19:27.034Z,99526.98
2018-12-27T10:21:54.161Z,99517.55
2018-12-27T10:24:21.159Z,99518.16
2018-12-27T10:26:48.210Z,99513.67
2018-12-27T10:29:17.081Z,99512.44
2018-12-27T10:31:44.179Z,99509.03
2018-12-27T10:34:11.239Z,99500.48
2018-12-27T10:36:38.326Z,99500.63
2018-12-27T10:39:09.923Z,99486.68
2018-12-27T10:41:37.043Z,99481.91
2018-12-27T10:44:04.144Z,99482.28
2018-12-27T10:46:33.072Z,99473.63
2018-12-27T10:49:00.981Z,99464.09
2018-12-27T10:51:28.061Z,99465.03
2018-12-27T10:53:55.286Z,99461.59
2018-12-27T10:56:23.527Z,99454.67
2018-12-27T10:58:50.523Z,99451.64
2018-12-27T11:01:17.544Z,99447.75
2018-12-27T11:03:44.638Z,99438.61
2018-12-27T11:06:11.646Z,99432.95
2018-12-27T11:08:38.724Z,99426.84
2018-12-27T11:11:06.037Z,99426.32
2018-12-27T11:13:34.195Z,99420.66
2018-12-27T11:16:01.239Z,99419.36
2018-12-27T11:18:28.538Z,99412.42
2018-12-27T11:20:55.656Z,99415.52
2018-12-27T11:23:22.500Z,99405.50
2018-12-27T11:25:49.326Z,99398.52
2018-12-27T11:28:16.269Z,99391.47
2018-12-27T11:30:43.097Z,99381.02
2018-12-27T11:33:10.321Z,99374.92
2018-12-27T11:35:37.371Z,99372.30
2018-12-27T11:38:04.207Z,99376.23
2018-12-27T11:40:46.049Z,99370.13
2018-12-27T11:43:13.089Z,99369.30
2018-12-27T11:45:40.187Z,99366.61
2018-12-27T11:48:08.678Z,99365.25
2018-12-27T11:50:35.737Z,99363.94
2018-12-27T11:53:02.698Z,99371.34
2018-12-27T11:55:29.765Z,99368.69
2018-12-27T11:57:57.015Z,99369.95
2018-12-27T12:00:25.059Z,99369.51
2018-12-27T12:02:52.209Z,99365.16
2018-12-27T12:05:19.471Z,99365.55
2018-12-27T12:07:46.516Z,99365.97
2018-12-27T12:10:13.564Z,99357.65
2018-12-27T12:12:40.738Z,99355.05
2018-12-27T12:15:08.055Z,99360.70
2018-12-27T12:17:35.004Z,99360.20
2018-12-27T12:20:02.039Z,99357.61
2018-12-27T12:22:31.074Z,99355.91
2018-12-27T12:24:58.114Z,99348.94
2018-12-27T12:27:25.178Z,99352.42
2018-12-27T12:29:52.278Z,99353.30
2018-12-27T12:32:19.301Z,99351.55
2018-12-27T12:34:46.288Z,99343.30
2018-12-27T12:37:14.170Z,99343.77
2018-12-27T12:39:41.618Z,99349.86
2018-12-27T12:42:08.572Z,99348.13
2018-12-27T12:44:35.586Z,99349.92
2018-12-27T12:47:02.726Z,99349.92
2018-12-27T12:49:29.748Z,99352.14
2018-12-27T12:51:56.703Z,99356.94
2018-12-27T12:54:23.735Z,99358.72
2018-12-27T12:56:50.741Z,99358.72
2018-12-27T12:59:17.720Z,99363.98
2018-12-27T13:01:44.759Z,99362.25
2018-12-27T13:04:11.919Z,99366.21
2018-12-27T13:06:38.994Z,99362.72
2018-12-27T13:09:07.081Z,99362.73
2018-12-27T13:11:34.111Z,99360.55
2018-12-27T13:14:01.013Z,99357.97
2018-12-27T13:16:28.155Z,99357.10
2018-12-27T13:18:55.143Z,99359.28
2018-12-27T13:21:22.217Z,99355.36
2018-12-27T13:23:49.278Z,99359.28
2018-12-27T13:26:16.174Z,99350.97
2018-12-27T13:28:43.195Z,99350.97
2018-12-27T13:31:10.270Z,99354.41
2018-12-27T13:33:37.288Z,99348.31
2018-12-27T13:36:04.868Z,99354.84
2018-12-27T13:38:31.848Z,99346.97
2018-12-27T13:40:58.958Z,99345.66
2018-12-27T13:43:27.204Z,99342.60
2018-12-27T13:45:54.300Z,99343.00
2018-12-27T13:48:21.211Z,99345.18
2018-12-27T13:50:48.485Z,99336.03
2018-12-27T13:53:16.927Z,99335.12
2018-12-27T13:55:49.079Z,99339.04
2018-12-27T13:58:21.068Z,99339.91
2018-12-27T14:00:53.226Z,99337.69
2018-12-27T14:03:33.067Z,99342.03
2018-12-27T14:06:05.075Z,99335.93
2018-12-27T14:08:38.053Z,99346.37
2018-12-27T14:11:06.606Z,99338.94
2018-12-27T14:13:41.908Z,99349.77
2018-12-27T14:16:10.620Z,99347.58
2018-12-27T14:18:37.623Z,99353.19
2018-12-27T14:21:04.933Z,99353.17
2018-12-27T14:23:36.586Z,99348.34
2018-12-27T14:26:08.008Z,99347.84
2018-12-27T14:28:36.386Z,99352.17
2018-12-27T14:31:09.151Z,99352.99
2018-12-27T14:33:54.144Z,99351.23
2018-12-27T14:36:21.167Z,99349.00
2018-12-27T14:38:48.289Z,99357.64
2018-12-27T14:41:17.109Z,99352.76
2018-12-27T14:43:44.062Z,99349.70
2018-12-27T14:46:11.012Z,99357.89
2018-12-27T14:48:44.355Z,99355.69
2018-12-27T14:51:16.465Z,99357.81
2018-12-27T14:53:45.684Z,99362.95
2018-12-27T14:56:13.918Z,99361.61
2018-12-27T14:58:45.687Z,99363.27
2018-12-27T15:01:12.882Z,99360.16
2018-12-27T15:03:40.384Z,99356.59
2018-12-27T15:06:47.969Z,99351.73
2018-12-27T15:09:15.599Z,99348.66
2018-12-27T15:11:46.943Z,99354.23
2018-12-27T15:14:14.494Z,99356.81
2018-12-27T15:16:48.459Z,99355.85
2018-12-27T15:19:28.076Z,99353.15
2018-12-27T15:22:01.331Z,99355.23
2018-12-27T15:24:35.231Z,99347.73
2018-12-27T15:27:06.367Z,99351.58
2018-12-27T15:29:33.379Z,99351.52
2018-12-27T15:32:00.420Z,99354.42
2018-12-27T15:34:27.351Z,99359.09
2018-12-27T15:36:54.668Z,99363.76
2018-12-27T15:39:23.624Z,99366.67
2018-12-27T15:41:50.599Z,99370.06
2018-12-27T15:44:17.476Z,99366.13
2018-12-27T15:46:44.436Z,99365.69
2018-12-27T15:49:11.360Z,99366.54
2018-12-27T15:51:38.313Z,99368.28
2018-12-27T15:54:05.294Z,99367.86
2018-12-27T15:56:32.300Z,99362.22
2018-12-27T15:58:59.257Z,99363.53
2018-12-27T16:01:26.323Z,99359.11
2018-12-27T16:04:05.228Z,99361.21
2018-12-27T16:06:34.425Z,99364.62
2018-12-27T16:09:04.672Z,99368.05
2018-12-27T16:12:26.220Z,99367.95
2018-12-27T16:14:53.029Z,99368.77
2018-12-27T16:17:20.079Z,99373.44
2018-12-27T16:19:48.393Z,99373.75
2018-12-27T16:22:17.620Z,99373.67
2018-12-27T16:24:51.158Z,99374.88
2018-12-27T16:27:37.688Z,99372.61
2018-12-27T16:30:07.793Z,99375.50
2018-12-27T16:32:35.324Z,99374.48
2018-12-27T16:35:04.461Z,99368.65
2018-12-27T16:37:33.247Z,99366.31
2018-12-27T16:40:01.604Z,99368.41
2018-12-27T16:42:30.067Z,99372.85
2018-12-27T16:45:14.205Z,99371.15
2018-12-27T16:47:41.442Z,99358.16
2018-12-27T16:50:09.419Z,99364.61
2018-12-27T16:53:10.993Z,99362.03
2018-12-27T16:55:44.042Z,99357.22
2018-12-27T16:58:15.236Z,99358.13
2018-12-27T17:00:44.995Z,99359.13
2018-12-27T17:03:14.730Z,99354.78
2018-12-27T17:05:44.477Z,99345.23
2018-12-27T17:08:12.231Z,99342.64
2018-12-27T17:10:39.240Z,99340.84
2018-12-27T17:13:06.313Z,99342.52
2018-12-27T17:15:35.614Z,99337.77
2018-12-27T17:18:02.579Z,99330.09
2018-12-27T17:20:29.702Z,99337.14
2018-12-27T17:23:04.534Z,99338.44
2018-12-27T17:26:16.030Z,99324.09
2018-12-27T17:28:43.207Z,99324.45
2018-12-27T17:31:10.146Z,99322.54
2018-12-27T17:33:37.166Z,99325.47
2018-12-27T17:36:03.986Z,99337.93
2018-12-27T17:38:30.907Z,99330.09
2018-12-27T17:40:57.827Z,99328.75
2018-12-27T17:43:24.834Z,99320.13
2018-12-27T17:45:51.660Z,99314.08
2018-12-27T17:48:18.875Z,99310.59
2018-12-27T17:50:47.119Z,99319.08
2018-12-27T17:53:14.129Z,99317.19
2018-12-27T17:55:41.245Z,99331.45
2018-12-27T17:58:08.195Z,99332.22
2018-12-27T18:00:35.255Z,99339.11
2018-12-27T18:03:02.933Z,99345.25
2018-12-27T18:05:30.188Z,99342.20
2018-12-27T18:07:57.286Z,99346.09
2018-12-27T18:10:26.608Z,99352.22
2018-12-27T18:12:53.575Z,99356.48
2018-12-27T18:15:20.677Z,99358.23
2018-12-27T18:17:47.618Z,99363.91
2018-12-27T18:20:15.246Z,99370.42
2018-12-27T18:22:42.265Z,99379.06
2018-12-27T18:25:09.287Z,99381.23
2018-12-27T18:27:36.287Z,99380.39
2018-12-27T18:30:03.697Z,99371.80
2018-12-27T18:32:30.584Z,99368.13
2018-12-27T18:34:57.415Z,99376.23
2018-12-27T18:37:24.298Z,99373.12
2018-12-27T18:39:51.295Z,99382.22
2018-12-27T18:42:18.109Z,99381.42
2018-12-27T18:44:45.079Z,99374.56
2018-12-27T18:47:19.428Z,99374.61
2018-12-27T18:49:46.542Z,99372.04
2018-12-27T18:52:13.363Z,99368.63
2018-12-27T18:54:40.375Z,99372.94
2018-12-27T18:57:07.429Z,99374.66
2018-12-27T18:59:34.243Z,99370.77
2018-12-27T19:02:01.262Z,99372.06
2018-12-27T19:04:28.193Z,99375.97
2018-12-27T19:06:55.215Z,99374.19
2018-12-27T19:09:22.227Z,99377.08
2018-12-27T19:12:25.849Z,99375.19
2018-12-27T19:14:57.161Z,99371.30
2018-12-27T19:17:29.368Z,99373.05
2018-12-27T19:19:56.417Z,99370.53
2018-12-27T19:22:34.484Z,99363.24
2018-12-27T19:25:01.413Z,99360.78
2018-12-27T19:27:28.395Z,99364.67
2018-12-27T19:29:55.389Z,99367.72
2018-12-27T19:32:22.415Z,99367.70
2018-12-27T19:34:49.363Z,99370.27
2018-12-27T19:37:16.330Z,99377.20
2018-12-27T19:39:43.258Z,99377.66
2018-12-27T19:42:10.179Z,99377.34
2018-12-27T19:44:37.203Z,99375.67
2018-12-27T19:47:04.154Z,99369.65
2018-12-27T19:49:31.305Z,99376.25
2018-12-27T19:51:58.324Z,99374.92
2018-12-27T19:54:31.755Z,99370.58
2018-12-27T19:56:54.188Z,99364.13
2018-12-27T19:59:21.148Z,99377.66
2018-12-27T20:01:48.123Z,99369.91
2018-12-27T20:04:16.866Z,99371.66
2018-12-27T20:06:43.817Z,99364.31
2018-12-27T20:09:12.178Z,99372.55
2018-12-27T20:11:39.227Z,99361.22
2018-12-27T20:14:06.363Z,99361.14
2018-12-27T20:16:33.448Z,99357.17
2018-12-27T20:19:00.812Z,99357.52
2018-12-27T20:21:27.758Z,99366.11
2018-12-27T20:23:54.771Z,99366.83
2018-12-27T20:26:21.772Z,99361.09
2018-12-27T20:28:48.668Z,99360.59
2018-12-27T20:31:15.542Z,99359.16
2018-12-27T20:33:42.512Z,99346.27
2018-12-27T20:36:09.531Z,99343.45
2018-12-27T20:38:36.807Z,99340.58
2018-12-27T20:41:03.622Z,99339.41
2018-12-27T20:43:30.611Z,99345.19
2018-12-27T20:45:57.563Z,99341.91
2018-12-27T20:48:24.636Z,99341.17
2018-12-27T20:50:51.621Z,99338.22
2018-12-27T20:53:20.700Z,99333.09
2018-12-27T20:55:50.004Z,99329.77
2018-12-27T20:58:19.230Z,99331.24
2018-12-27T21:00:50.064Z,99323.17
2018-12-27T21:03:23.837Z,99318.55
2018-12-27T21:05:53.193Z,99307.82
2018-12-27T21:08:22.764Z,99313.45
2018-12-27T21:10:51.817Z,99315.17
2018-12-27T21:13:21.068Z,99312.47
2018-12-27T21:15:50.253Z,99316.76
2018-12-27T21:18:19.521Z,99318.84
2018-12-27T21:20:48.919Z,99325.73
2018-12-27T21:23:18.154Z,99325.95
2018-12-27T21:25:47.273Z,99330.98
2018-12-27T21:28:16.346Z,99331.74
2018-12-27T21:30:45.593Z,99322.98
2018-12-27T21:33:15.084Z,99326.44
2018-12-27T21:35:44.340Z,99327.73
2018-12-27T21:38:13.671Z,99329.03
2018-12-27T21:40:42.743Z,99326.38
2018-12-27T21:43:11.881Z,99311.17
2018-12-27T21:45:40.974Z,99311.12
2018-12-27T21:48:10.124Z,99308.05
2018-12-27T21:50:39.221Z,99301.92
2018-12-27T21:53:08.322Z,99307.44
2018-12-27T21:55:37.424Z,99316.93
2018-12-27T21:58:06.536Z,99313.03
2018-12-27T22:00:35.763Z,99313.61
2018-12-27T22:03:05.004Z,99309.33
2018-12-27T22:05:34.039Z,99307.28
2018-12-27T22:08:04.515Z,99302.20
2018-12-27T22:10:33.680Z,99296.66
2018-12-27T22:13:02.783Z,99303.23
2018-12-27T22:15:31.871Z,99302.23
2018-12-27T22:18:01.256Z,99308.20
2018-12-27T22:20:30.338Z,99312.94
2018-12-27T22:22:59.534Z,99309.47
2018-12-27T22:25:28.720Z,99309.45
2018-12-27T22:27:58.154Z,99317.79
2018-12-27T22:30:27.593Z,99317.71
2018-12-27T22:32:56.776Z,99306.75
2018-12-27T22:35:25.977Z,99309.69
2018-12-27T22:37:55.102Z,99309.98
2018-12-27T22:40:24.051Z,99314.37
2018-12-27T22:42:53.190Z,99312.19
2018-12-27T22:45:22.355Z,99311.61
2018-12-27T22:47:51.492Z,99306.80
2018-12-27T22:50:20.649Z,99302.92
2018-12-27T22:52:49.775Z,99298.22
2018-12-27T22:55:19.152Z,99301.30
2018-12-27T22:57:49.105Z,99305.69
2018-12-27T23:00:27.601Z,99305.69
2018-12-27T23:02:56.644Z,99302.69
2018-12-27T23:05:26.023Z,99313.16
2018-12-27T23:07:55.184Z,99314.03
2018-12-27T23:10:24.301Z,99314.50
2018-12-27T23:12:53.336Z,99314.83
2018-12-27T23:15:22.412Z,99300.45
2018-12-27T23:17:52.888Z,99298.20
2018-12-27T23:20:21.996Z,99302.03
2018-12-27T23:22:51.060Z,99299.75
2018-12-27T23:25:20.124Z,99305.75
2018-12-27T23:27:49.155Z,99295.13
2018-12-27T23:30:18.315Z,99299.16
2018-12-27T23:32:47.387Z,99295.93
2018-12-27T23:35:16.518Z,99295.74
2018-12-27T23:37:45.621Z,99300.84
2018-12-27T23:40:14.746Z,99305.88
2018-12-27T23:42:43.904Z,99311.09
2018-12-27T23:45:13.035Z,99311.88
2018-12-27T23:47:42.063Z,99317.31
2018-12-27T23:50:11.160Z,99319.41
2018-12-27T23:52:40.131Z,99319.70
2018-12-27T23:55:09.151Z,99314.09
2018-12-27T23:57:38.281Z,99308.85
